Time;durP1;ratioP1;P1;durP2;ratioP2;P2;SDS_P1;SDS_P2;PMS_P1;PMS_P2;Temp;Humidity;BMP_temperature;BMP_pressure;BME280_temperature;BME280_humidity;BME280_pressure;Samples;Min_cycle;Max_cycle;Signal;HPM_P1;HPM_P2
2023/01/02 00:00:28;;;;;;;20.63;12.70;;;10.20;99.90;;;;;;4979186;28;20106;-79
2023/01/02 00:02:54;;;;;;;18.10;12.15;;;10.20;99.90;;;;;;4994732;28;20081;-79
2023/01/02 00:05:20;;;;;;;19.92;11.43;;;10.20;99.90;;;;;;4978920;28;20073;-79
2023/01/02 00:07:45;;;;;;;20.80;12.35;;;10.20;99.90;;;;;;4994705;28;20429;-80
2023/01/02 00:10:11;;;;;;;25.08;13.73;;;10.20;99.90;;;;;;4982439;28;20528;-79
2023/01/02 00:12:36;;;;;;;31.40;13.50;;;10.20;99.90;;;;;;4962292;28;20035;-79
2023/01/02 00:15:03;;;;;;;22.58;13.55;;;10.20;99.90;;;;;;4959232;28;20042;-79
2023/01/02 00:17:28;;;;;;;30.35;13.93;;;10.20;99.90;;;;;;4958693;28;20039;-80
2023/01/02 00:19:55;;;;;;;26.33;14.38;;;10.30;99.90;;;;;;4974204;28;20042;-79
2023/01/02 00:22:21;;;;;;;29.67;14.35;;;10.20;99.90;;;;;;4994610;28;20046;-79
2023/01/02 00:24:47;;;;;;;22.70;14.32;;;10.20;99.90;;;;;;4977964;28;20057;-80
2023/01/02 00:27:14;;;;;;;32.50;15.57;;;10.20;99.90;;;;;;4994114;28;20042;-79
2023/01/02 00:29:39;;;;;;;25.63;14.05;;;10.30;99.90;;;;;;4969389;28;20054;-79
2023/01/02 00:32:05;;;;;;;26.15;15.02;;;10.20;99.90;;;;;;4989040;28;20761;-79
2023/01/02 00:34:30;;;;;;;30.10;14.98;;;10.30;99.90;;;;;;4997236;28;20034;-79
2023/01/02 00:36:56;;;;;;;28.17;15.07;;;10.30;99.90;;;;;;4982309;28;20042;-80
2023/01/02 00:39:21;;;;;;;23.13;14.32;;;10.30;99.90;;;;;;4979723;28;20412;-79
2023/01/02 00:41:47;;;;;;;30.67;15.48;;;10.30;99.90;;;;;;4994348;28;20069;-79
2023/01/02 00:44:13;;;;;;;28.30;15.07;;;10.30;99.90;;;;;;4979315;28;20149;-79
2023/01/02 00:46:38;;;;;;;25.65;15.48;;;10.20;99.90;;;;;;4978394;28;20366;-80
2023/01/02 00:49:04;;;;;;;28.45;16.17;;;10.30;99.90;;;;;;4991684;28;20041;-79
2023/01/02 00:51:29;;;;;;;31.55;16.15;;;10.30;99.90;;;;;;4997628;28;20077;-79
2023/01/02 00:53:55;;;;;;;24.85;14.80;;;10.40;99.90;;;;;;4981582;28;20046;-80
2023/01/02 00:56:21;;;;;;;24.27;14.65;;;10.30;99.90;;;;;;4996654;28;20117;-79
2023/01/02 00:58:46;;;;;;;25.75;15.27;;;10.40;99.90;;;;;;4980648;28;20046;-79
2023/01/02 01:01:12;;;;;;;28.83;15.45;;;10.40;99.90;;;;;;4997710;28;20081;-79
2023/01/02 01:03:38;;;;;;;26.10;15.23;;;10.40;99.90;;;;;;4997332;28;20116;-79
2023/01/02 01:06:07;;;;;;;30.80;16.77;;;10.40;99.90;;;;;;4986451;28;20548;-80
2023/01/02 01:08:37;;;;;;;34.70;17.23;;;10.50;99.90;;;;;;4983601;28;20073;-80
2023/01/02 01:11:08;;;;;;;29.15;16.70;;;10.50;99.90;;;;;;4995562;28;20039;-79
2023/01/02 01:13:33;;;;;;;27.80;15.88;;;10.50;99.90;;;;;;4979452;28;20031;-80
2023/01/02 01:16:06;;;;;;;29.25;16.52;;;10.50;99.90;;;;;;4979551;28;20141;-79
2023/01/02 01:18:32;;;;;;;;;;;10.50;99.90;;;;;;4993429;28;20483;-79
2023/01/02 01:20:57;;;;;;;31.27;16.13;;;10.50;99.90;;;;;;4979485;28;19971;-79
2023/01/02 01:23:23;;;;;;;29.55;17.05;;;10.50;99.90;;;;;;4980213;28;20060;-79
2023/01/02 01:25:49;;;;;;;35.63;16.52;;;10.50;99.90;;;;;;4963183;28;20042;-79
2023/01/02 01:28:14;;;;;;;30.00;16.27;;;10.50;99.90;;;;;;4993287;28;20031;-79
2023/01/02 01:30:40;;;;;;;33.38;16.33;;;10.50;99.90;;;;;;4978410;28;20548;-79
2023/01/02 01:33:06;;;;;;;25.13;14.98;;;10.60;99.90;;;;;;4995395;28;20444;-79
2023/01/02 01:35:34;;;;;;;32.88;17.23;;;10.60;99.90;;;;;;4978335;28;20129;-79
2023/01/02 01:38:00;;;;;;;32.97;16.05;;;10.60;99.90;;;;;;4978221;28;20075;-78
2023/01/02 01:40:25;;;;;;;27.67;15.65;;;10.60;99.90;;;;;;4983090;28;20404;-79
2023/01/02 01:42:51;;;;;;;33.45;16.98;;;10.60;99.90;;;;;;4977740;28;20085;-79
2023/01/02 01:45:17;;;;;;;31.88;15.15;;;10.60;99.90;;;;;;4994698;28;20050;-79
2023/01/02 01:47:51;;;;;;;28.10;15.20;;;10.60;99.90;;;;;;4994376;28;20093;-79
2023/01/02 01:50:33;;;;;;;33.42;15.52;;;10.60;99.90;;;;;;4994732;28;20492;-79
2023/01/02 01:53:14;;;;;;;23.13;14.52;;;10.60;99.90;;;;;;4993594;28;20115;-79
2023/01/02 01:56:03;;;;;;;24.48;13.27;;;10.60;99.90;;;;;;4976922;28;20053;-79
2023/01/02 01:58:33;;;;;;;25.13;14.68;;;10.60;99.90;;;;;;4983960;28;20400;-79
2023/01/02 02:00:59;;;;;;;26.05;14.43;;;10.60;99.90;;;;;;4978586;28;20038;-79
2023/01/02 02:03:28;;;;;;;24.25;13.45;;;10.60;99.90;;;;;;4994356;28;20050;-80
2023/01/02 02:05:55;;;;;;;22.63;13.05;;;10.60;99.90;;;;;;4980060;28;20138;-80
2023/01/02 02:08:30;;;;;;;19.60;12.85;;;10.60;99.90;;;;;;4972952;28;20039;-80
2023/01/02 02:10:58;;;;;;;26.02;13.55;;;10.60;99.90;;;;;;4975436;28;20039;-80
2023/01/02 02:13:24;;;;;;;25.48;13.05;;;10.60;99.90;;;;;;4976461;28;20037;-80
2023/01/02 02:16:10;;;;;;;24.83;13.50;;;10.60;99.90;;;;;;4995719;28;20046;-79
2023/01/02 02:19:14;;;;;;;25.30;12.70;;;10.60;99.90;;;;;;4957372;28;20615;-80
2023/01/02 02:22:02;;;;;;;28.55;14.10;;;10.60;99.90;;;;;;4995099;28;20524;-80
2023/01/02 02:24:58;;;;;;;22.70;12.13;;;10.60;99.90;;;;;;4994605;28;20559;-79
2023/01/02 02:27:27;;;;;;;21.20;12.52;;;10.60;99.90;;;;;;4995048;28;20069;-79
2023/01/02 02:30:04;;;;;;;19.48;11.98;;;10.60;99.90;;;;;;4979159;28;20492;-80
2023/01/02 02:32:56;;;;;;;22.02;12.38;;;10.60;99.90;;;;;;4978742;28;20042;-80
2023/01/02 02:35:57;;;;;;;18.25;11.52;;;10.60;99.90;;;;;;4970503;28;20058;-79
2023/01/02 02:38:44;;;;;;;25.33;12.90;;;10.60;99.90;;;;;;4979464;28;20038;-80
2023/01/02 02:41:23;;;;;;;19.90;11.75;;;10.60;99.90;;;;;;4994393;28;20397;-79
2023/01/02 02:44:13;;;;;;;30.02;12.98;;;10.70;99.90;;;;;;4976978;28;20035;-80
2023/01/02 02:47:06;;;;;;;26.35;13.45;;;10.60;99.90;;;;;;4992655;28;20493;-79
2023/01/02 02:50:07;;;;;;;25.77;12.55;;;10.70;99.90;;;;;;4974178;28;20085;-80
2023/01/02 02:52:37;;;;;;;21.70;11.27;;;10.70;99.90;;;;;;4996334;28;20042;-79
2023/01/02 02:55:24;;;;;;;22.15;12.68;;;10.70;99.90;;;;;;4990171;28;20066;-79
2023/01/02 02:57:51;;;;;;;18.98;12.50;;;10.70;99.90;;;;;;4967106;28;20042;-80
2023/01/02 03:00:21;;;;;;;21.30;11.80;;;10.70;99.90;;;;;;4977473;28;20038;-80
2023/01/02 03:02:47;;;;;;;19.08;11.70;;;10.70;99.90;;;;;;4977744;28;20053;-80
2023/01/02 03:05:21;;;;;;;22.80;11.73;;;10.80;99.90;;;;;;4983945;28;20035;-80
2023/01/02 03:08:00;;;;;;;24.75;12.40;;;10.80;99.90;;;;;;4993591;28;20195;-80
2023/01/02 03:10:48;;;;;;;24.70;12.50;;;10.80;99.90;;;;;;4992628;28;20039;-79
2023/01/02 03:13:38;;;;;;;26.52;13.15;;;10.80;99.90;;;;;;4992006;28;20030;-79
2023/01/02 03:16:40;;;;;;;26.15;14.05;;;10.80;99.90;;;;;;4979035;28;20044;-78
2023/01/02 03:19:46;;;;;;;28.63;13.13;;;10.80;99.90;;;;;;4975490;28;20049;-78
2023/01/02 03:22:24;;;;;;;23.05;12.73;;;10.80;99.90;;;;;;4976280;28;20096;-78
2023/01/02 03:24:54;;;;;;;23.77;12.48;;;10.90;99.90;;;;;;4975652;28;20042;-78
2023/01/02 03:27:24;;;;;;;25.58;12.73;;;10.80;99.90;;;;;;4990710;28;20030;-78
2023/01/02 03:30:00;;;;;;;21.00;12.65;;;10.80;99.90;;;;;;4958711;28;20043;-78
2023/01/02 03:32:29;;;;;;;26.55;13.85;;;10.80;99.90;;;;;;4961578;28;20481;-78
2023/01/02 03:34:57;;;;;;;25.92;12.18;;;10.80;99.90;;;;;;4986227;28;20038;-78
2023/01/02 03:37:27;;;;;;;26.75;13.05;;;10.80;99.90;;;;;;4991889;28;20045;-78
2023/01/02 03:39:56;;;;;;;31.33;12.80;;;10.80;99.90;;;;;;4976787;28;20121;-78
2023/01/02 03:42:33;;;;;;;26.95;13.35;;;10.80;99.90;;;;;;4976291;28;20043;-78
2023/01/02 03:45:29;;;;;;;27.38;13.30;;;10.80;99.90;;;;;;4963269;28;20043;-78
2023/01/02 03:48:30;;;;;;;27.52;13.13;;;10.80;99.90;;;;;;4969483;28;20042;-78
2023/01/02 03:50:59;;;;;;;30.30;13.73;;;10.80;99.90;;;;;;4965150;28;20035;-78
2023/01/02 03:53:26;;;;;;;29.67;13.68;;;10.80;99.90;;;;;;4973547;28;20393;-78
2023/01/02 03:56:34;;;;;;;24.92;13.55;;;10.80;99.90;;;;;;4975263;28;20042;-78
2023/01/02 03:59:13;;;;;;;29.73;13.90;;;10.80;99.90;;;;;;4983572;28;20050;-78
2023/01/02 04:01:54;;;;;;;27.90;13.90;;;10.80;99.90;;;;;;4988869;28;20046;-79
2023/01/02 04:04:36;;;;;;;22.88;13.63;;;10.80;99.90;;;;;;4969043;28;20042;-79
2023/01/02 04:07:05;;;;;;;21.75;13.32;;;10.80;99.90;;;;;;4995415;28;20052;-78
2023/01/02 04:09:32;;;;;;;25.90;12.48;;;10.80;99.90;;;;;;4973733;28;20042;-79
2023/01/02 04:12:03;;;;;;;24.60;12.98;;;10.80;99.90;;;;;;4978587;28;20074;-78
2023/01/02 04:14:49;;;;;;;23.13;12.93;;;10.90;99.90;;;;;;4996350;28;20108;-78
2023/01/02 04:17:17;;;;;;;23.30;12.85;;;10.80;99.90;;;;;;4976067;28;20066;-78
2023/01/02 04:19:55;;;;;;;23.05;12.55;;;10.90;99.90;;;;;;4959872;28;20062;-77
2023/01/02 04:22:27;;;;;;;23.95;12.88;;;10.90;99.90;;;;;;4977511;28;20046;-77
2023/01/02 04:25:00;;;;;;;19.75;12.50;;;10.80;99.90;;;;;;4985122;28;20386;-77
2023/01/02 04:27:35;;;;;;;23.63;12.50;;;10.90;99.90;;;;;;4986034;28;20261;-77
2023/01/02 04:30:01;;;;;;;20.38;11.90;;;10.90;99.90;;;;;;4986786;28;20473;-78
2023/01/02 04:32:32;;;;;;;25.60;12.60;;;10.90;99.90;;;;;;4994788;28;20030;-77
2023/01/02 04:35:03;;;;;;;20.55;12.13;;;10.90;99.90;;;;;;4969991;28;20085;-77
2023/01/02 04:37:35;;;;;;;22.30;12.10;;;10.90;99.90;;;;;;4977559;28;20034;-77
2023/01/02 04:40:07;;;;;;;24.30;11.93;;;10.90;99.90;;;;;;4985153;28;20049;-77
2023/01/02 04:42:33;;;;;;;17.10;11.43;;;11.00;99.90;;;;;;4993924;28;20041;-77
2023/01/02 04:44:58;;;;;;;26.90;11.88;;;11.00;99.90;;;;;;4992280;28;20042;-77
2023/01/02 04:47:24;;;;;;;22.23;11.90;;;11.10;99.90;;;;;;4994168;28;20034;-77
2023/01/02 04:49:49;;;;;;;18.30;11.68;;;11.10;99.90;;;;;;4994343;28;20049;-77
2023/01/02 04:52:15;;;;;;;27.13;12.35;;;11.10;99.90;;;;;;4974436;28;20030;-77
2023/01/02 04:54:40;;;;;;;19.63;11.43;;;11.10;99.90;;;;;;4982920;28;20393;-77
2023/01/02 04:57:06;;;;;;;16.88;10.65;;;11.10;99.90;;;;;;4993524;28;20038;-77
2023/01/02 04:59:32;;;;;;;17.75;11.32;;;11.10;99.90;;;;;;4978582;28;20058;-77
2023/01/02 05:01:57;;;;;;;17.02;10.85;;;11.10;99.90;;;;;;4978285;28;20054;-78
2023/01/02 05:04:23;;;;;;;17.33;11.02;;;11.20;99.90;;;;;;4993274;28;20060;-77
2023/01/02 05:06:48;;;;;;;16.85;11.23;;;11.20;99.90;;;;;;4976828;28;20046;-77
2023/01/02 05:09:15;;;;;;;19.75;11.63;;;11.20;99.90;;;;;;4968146;28;20116;-77
2023/01/02 05:11:41;;;;;;;19.45;11.77;;;11.20;99.90;;;;;;4986249;28;20046;-77
2023/01/02 05:14:07;;;;;;;18.27;12.55;;;11.20;99.90;;;;;;4993676;28;20065;-77
2023/01/02 05:16:33;;;;;;;19.67;12.45;;;11.30;99.90;;;;;;4985258;28;20064;-77
2023/01/02 05:18:58;;;;;;;23.50;12.32;;;11.30;99.90;;;;;;4968941;28;20050;-77
2023/01/02 05:24:08;;;;;;;21.60;11.45;;;11.30;99.90;;;;;;4990211;28;20077;-77
2023/01/02 05:26:33;;;;;;;17.98;11.98;;;11.40;99.90;;;;;;4976809;28;20489;-77
2023/01/02 05:28:59;;;;;;;17.85;11.98;;;11.40;99.90;;;;;;4977489;28;20073;-78
2023/01/02 05:31:26;;;;;;;18.77;10.80;;;11.30;99.90;;;;;;4983785;28;20027;-77
2023/01/02 05:33:54;;;;;;;16.45;11.45;;;11.40;99.90;;;;;;4989938;28;20048;-77
2023/01/02 05:36:21;;;;;;;15.10;10.65;;;11.40;99.90;;;;;;4988305;28;20295;-77
2023/01/02 05:38:46;;;;;;;14.27;11.18;;;11.40;99.90;;;;;;4990641;28;20050;-77
2023/01/02 05:41:12;;;;;;;18.48;10.77;;;11.40;99.90;;;;;;4994038;28;20042;-77
2023/01/02 05:43:38;;;;;;;16.98;10.80;;;11.40;99.90;;;;;;4985948;28;20061;-77
2023/01/02 05:46:11;;;;;;;18.92;10.57;;;11.50;99.90;;;;;;4990807;28;20058;-77
2023/01/02 05:48:38;;;;;;;18.73;11.45;;;11.50;99.90;;;;;;4993380;28;20046;-77
2023/01/02 05:51:04;;;;;;;15.98;10.32;;;11.50;99.90;;;;;;4993855;28;20035;-77
2023/01/02 05:53:30;;;;;;;19.55;10.38;;;11.50;99.90;;;;;;4993456;28;20038;-77
2023/01/02 05:56:07;;;;;;;14.45;10.10;;;11.50;99.90;;;;;;4990192;28;21394;-77
2023/01/02 05:58:34;;;;;;;15.05;10.38;;;11.50;99.90;;;;;;4990962;28;20058;-77
2023/01/02 06:01:06;;;;;;;15.63;9.95;;;11.50;99.90;;;;;;4990720;28;20054;-77
2023/01/02 06:03:31;;;;;;;15.35;10.60;;;11.50;99.90;;;;;;4993378;28;20064;-77
2023/01/02 06:06:02;;;;;;;13.93;10.40;;;11.50;99.90;;;;;;4975310;28;20046;-77
2023/01/02 06:08:27;;;;;;;13.05;9.82;;;11.50;99.90;;;;;;4992554;28;20520;-77
2023/01/02 06:10:53;;;;;;;15.25;10.07;;;11.50;99.90;;;;;;4993539;28;20042;-77
2023/01/02 06:13:18;;;;;;;16.65;10.32;;;11.50;99.90;;;;;;4989703;28;20089;-77
2023/01/02 06:15:44;;;;;;;15.88;10.55;;;11.50;99.90;;;;;;4990741;28;20413;-76
2023/01/02 06:18:09;;;;;;;16.60;10.77;;;11.50;99.90;;;;;;4991233;28;20050;-76
2023/01/02 06:20:35;;;;;;;16.10;10.27;;;11.50;99.90;;;;;;4991153;28;20042;-77
2023/01/02 06:23:01;;;;;;;14.32;9.57;;;11.50;99.90;;;;;;4991414;28;20439;-76
2023/01/02 06:25:26;;;;;;;15.20;9.55;;;11.50;99.90;;;;;;4990983;28;20112;-76
2023/01/02 06:27:52;;;;;;;13.85;9.98;;;11.50;99.90;;;;;;4983205;28;20034;-77
2023/01/02 06:30:17;;;;;;;14.68;10.35;;;11.50;99.90;;;;;;4992194;28;20125;-77
2023/01/02 06:32:43;;;;;;;13.43;10.15;;;11.50;99.90;;;;;;4987781;28;20039;-77
2023/01/02 06:35:09;;;;;;;19.33;11.00;;;11.50;99.90;;;;;;4974595;28;20042;-76
2023/01/02 06:37:35;;;;;;;17.05;11.13;;;11.60;99.90;;;;;;4983210;28;20038;-76
2023/01/02 06:40:00;;;;;;;18.67;10.88;;;11.50;99.90;;;;;;4974716;28;20039;-80
2023/01/02 06:42:26;;;;;;;13.30;9.65;;;11.50;99.90;;;;;;4974467;28;20061;-76
2023/01/02 06:44:52;;;;;;;12.07;10.30;;;11.50;99.90;;;;;;4984087;28;20411;-76
2023/01/02 06:47:17;;;;;;;15.45;10.10;;;11.50;99.90;;;;;;4989927;28;20034;-76
2023/01/02 06:49:43;;;;;;;13.05;9.20;;;11.50;99.90;;;;;;4983254;28;20235;-77
2023/01/02 06:52:08;;;;;;;8.52;6.13;;;11.50;99.90;;;;;;4992045;28;20049;-75
2023/01/02 06:54:34;;;;;;;6.65;4.60;;;11.50;99.90;;;;;;4983660;28;20401;-76
2023/01/02 06:56:59;;;;;;;5.80;3.72;;;11.30;99.90;;;;;;4974433;28;20171;-77
2023/01/02 06:59:25;;;;;;;4.15;3.65;;;11.20;99.90;;;;;;4989987;28;20083;-79
2023/01/02 07:01:54;;;;;;;6.25;4.13;;;11.00;99.90;;;;;;4984186;28;20034;-78
2023/01/02 07:04:19;;;;;;;6.22;4.20;;;10.80;99.90;;;;;;4987860;28;20038;-77
2023/01/02 07:06:45;;;;;;;4.60;4.20;;;10.70;99.90;;;;;;4975300;28;20054;-77
2023/01/02 07:09:10;;;;;;;5.35;4.70;;;10.60;99.90;;;;;;4988467;28;20034;-77
2023/01/02 07:11:37;;;;;;;6.50;5.13;;;10.50;99.90;;;;;;4991561;28;20046;-78
2023/01/02 07:14:03;;;;;;;7.63;5.60;;;10.40;99.90;;;;;;4993927;28;20034;-78
2023/01/02 07:16:28;;;;;;;7.00;5.45;;;10.30;99.90;;;;;;4976801;28;20530;-79
2023/01/02 07:18:54;;;;;;;7.40;6.07;;;10.20;99.90;;;;;;4993016;28;20050;-79
2023/01/02 07:21:20;;;;;;;8.18;6.65;;;10.10;99.90;;;;;;4973937;28;20042;-79
2023/01/02 07:23:46;;;;;;;9.43;7.43;;;10.10;99.90;;;;;;4989110;28;20588;-77
2023/01/02 07:26:12;;;;;;;8.32;6.70;;;9.90;99.90;;;;;;4991918;28;20113;-78
2023/01/02 07:28:38;;;;;;;9.32;7.78;;;9.90;99.90;;;;;;4984761;28;20058;-79
2023/01/02 07:31:12;;;;;;;11.23;7.93;;;9.90;99.90;;;;;;5004684;28;20128;-79
2023/01/02 07:33:37;;;;;;;11.20;8.25;;;9.80;99.90;;;;;;4978038;28;20035;-79
2023/01/02 07:36:06;;;;;;;11.60;8.68;;;9.80;99.90;;;;;;4994641;28;20088;-79
2023/01/02 07:38:32;;;;;;;10.73;7.43;;;9.70;99.90;;;;;;4994278;28;20049;-79
2023/01/02 07:40:58;;;;;;;8.40;5.85;;;9.70;99.90;;;;;;4994151;28;20053;-79
2023/01/02 07:43:24;;;;;;;9.98;6.32;;;9.60;99.90;;;;;;4993412;28;20042;-79
2023/01/02 07:45:50;;;;;;;11.00;6.85;;;9.50;99.90;;;;;;4993699;28;20580;-80
2023/01/02 07:48:16;;;;;;;11.32;7.18;;;9.40;99.90;;;;;;4975686;28;20171;-78
2023/01/02 07:50:42;;;;;;;16.65;7.57;;;9.30;99.90;;;;;;4991929;28;20038;-78
2023/01/02 07:53:07;;;;;;;14.55;7.60;;;9.30;99.90;;;;;;4976484;28;20045;-78
2023/01/02 07:55:33;;;;;;;11.93;7.07;;;9.20;99.90;;;;;;4976232;28;20512;-79
2023/01/02 07:57:58;;;;;;;15.65;8.27;;;9.20;99.90;;;;;;4975838;28;20136;-79
2023/01/02 08:00:24;;;;;;;8.77;5.45;;;9.10;99.90;;;;;;4975539;28;20042;-79
2023/01/02 08:02:53;;;;;;;8.38;4.05;;;9.10;99.90;;;;;;4976793;28;20069;-80
2023/01/02 08:05:19;;;;;;;5.82;3.08;;;9.00;99.90;;;;;;4992045;28;20045;-79
2023/01/02 08:07:45;;;;;;;6.25;2.70;;;9.00;99.90;;;;;;4975992;28;20030;-79
2023/01/02 08:10:12;;;;;;;6.70;3.00;;;8.90;99.90;;;;;;4975685;28;20037;-79
2023/01/02 08:12:37;;;;;;;5.78;2.58;;;8.80;99.90;;;;;;4992060;28;20088;-78
2023/01/02 08:15:04;;;;;;;8.27;2.47;;;8.80;99.90;;;;;;4992550;28;20030;-80
2023/01/02 08:17:30;;;;;;;5.55;2.50;;;8.70;99.90;;;;;;4992135;28;20078;-80
2023/01/02 08:19:56;;;;;;;6.65;2.80;;;8.70;99.90;;;;;;4993134;28;20039;-80
2023/01/02 08:22:22;;;;;;;6.32;2.63;;;8.60;99.90;;;;;;4976703;28;20038;-80
2023/01/02 08:24:48;;;;;;;6.18;2.00;;;8.60;99.90;;;;;;4992582;28;20031;-80
2023/01/02 08:27:13;;;;;;;4.93;1.92;;;8.50;99.90;;;;;;4991992;28;20038;-79
2023/01/02 08:29:39;;;;;;;5.70;1.92;;;8.50;99.90;;;;;;4976290;28;20034;-78
2023/01/02 08:32:04;;;;;;;8.07;2.00;;;8.40;99.90;;;;;;4992780;28;20038;-78
2023/01/02 08:34:30;;;;;;;5.32;1.92;;;8.40;99.90;;;;;;4992753;28;20038;-79
2023/01/02 08:36:56;;;;;;;3.58;1.95;;;8.40;99.90;;;;;;4992560;28;20524;-81
2023/01/02 08:39:21;;;;;;;4.43;2.05;;;8.40;99.90;;;;;;4976895;28;20044;-80
2023/01/02 08:41:47;;;;;;;4.72;2.13;;;8.40;99.90;;;;;;4976609;28;20039;-78
2023/01/02 08:44:12;;;;;;;5.75;2.40;;;8.40;99.90;;;;;;4976862;28;20050;-80
2023/01/02 08:46:38;;;;;;;7.20;2.75;;;8.30;99.90;;;;;;4977043;28;20491;-80
2023/01/02 08:49:03;;;;;;;5.53;2.72;;;8.30;99.90;;;;;;4976831;28;20034;-80
2023/01/02 08:51:29;;;;;;;9.32;3.30;;;8.30;99.90;;;;;;4993579;28;20046;-79
2023/01/02 08:53:55;;;;;;;6.55;2.70;;;8.30;99.90;;;;;;4997030;28;20042;-80
2023/01/02 08:56:27;;;;;;;8.57;3.00;;;8.30;99.90;;;;;;4980770;28;20096;-80
2023/01/02 08:59:01;;;;;;;6.53;3.10;;;8.30;99.90;;;;;;4980899;28;20046;-80
2023/01/02 09:01:28;;;;;;;7.28;2.72;;;8.30;99.90;;;;;;4997721;28;20038;-80
2023/01/02 09:03:54;;;;;;;7.05;2.45;;;8.30;99.90;;;;;;4981025;28;20125;-80
2023/01/02 09:06:21;;;;;;;6.22;2.70;;;8.30;99.90;;;;;;4997406;28;20043;-80
2023/01/02 09:08:47;;;;;;;6.22;2.22;;;8.30;99.90;;;;;;4981369;28;20374;-80
2023/01/02 09:11:19;;;;;;;7.15;2.65;;;8.30;99.90;;;;;;4997291;28;20041;-80
2023/01/02 09:13:45;;;;;;;5.80;2.25;;;8.30;99.90;;;;;;4997670;28;20042;-80
2023/01/02 09:16:11;;;;;;;7.13;2.60;;;8.30;99.90;;;;;;4981781;28;20404;-79
2023/01/02 09:18:38;;;;;;;4.50;2.38;;;8.30;99.90;;;;;;4981632;28;20137;-79
2023/01/02 09:21:03;;;;;;;7.28;2.83;;;8.30;99.90;;;;;;4981925;28;20081;-79
2023/01/02 09:23:30;;;;;;;5.80;3.05;;;8.30;99.90;;;;;;4981809;28;20061;-79
2023/01/02 09:26:00;;;;;;;7.05;2.80;;;8.30;99.90;;;;;;4981467;28;20096;-79
2023/01/02 09:28:27;;;;;;;8.80;3.15;;;8.20;99.90;;;;;;4997351;28;20049;-78
2023/01/02 09:30:54;;;;;;;8.10;2.95;;;8.20;99.90;;;;;;4997381;28;20042;-79
2023/01/02 09:33:22;;;;;;;8.18;2.80;;;8.20;99.90;;;;;;5067155;23;20155;-76
2023/01/02 09:35:51;;;;;;;9.27;3.08;;;8.20;99.90;;;;;;4979847;28;20048;-76
2023/01/02 09:38:17;;;;;;;6.75;3.13;;;8.20;99.90;;;;;;4979505;28;20037;-76
2023/01/02 09:40:48;;;;;;;6.00;2.90;;;8.30;99.90;;;;;;4979514;28;20049;-76
2023/01/02 09:43:20;;;;;;;9.50;3.15;;;8.30;99.90;;;;;;4963986;28;20519;-76
2023/01/02 09:45:48;;;;;;;6.05;2.60;;;8.30;99.90;;;;;;4960419;28;20053;-76
2023/01/02 09:48:21;;;;;;;6.35;2.88;;;8.30;99.90;;;;;;4959991;28;20046;-76
2023/01/02 09:50:50;;;;;;;7.53;2.78;;;8.40;99.90;;;;;;4960179;28;20496;-76
2023/01/02 09:53:35;;;;;;;5.53;2.95;;;8.40;99.90;;;;;;4960523;28;20117;-76
2023/01/02 09:56:05;;;;;;;7.18;2.85;;;8.40;99.90;;;;;;4960508;28;20042;-77
2023/01/02 09:59:04;;;;;;;9.70;2.88;;;8.50;99.90;;;;;;4959920;28;20046;-76
2023/01/02 10:02:02;;;;;;;4.18;2.50;;;8.50;99.90;;;;;;4960110;28;20129;-76
2023/01/02 10:05:11;;;;;;;5.60;2.65;;;8.50;99.90;;;;;;4975886;28;20506;-76
2023/01/02 10:08:02;;;;;;;3.90;2.58;;;8.60;99.90;;;;;;4959565;28;20042;-76
2023/01/02 10:10:43;;;;;;;5.40;2.70;;;8.60;99.90;;;;;;4959942;28;20046;-76
2023/01/02 10:13:31;;;;;;;;;;;8.70;99.90;;;;;;4960384;28;20042;-76
2023/01/02 10:16:02;;;;;;;5.45;2.70;;;8.80;99.90;;;;;;4963695;28;19925;-76
2023/01/02 10:18:36;;;;;;;4.35;2.50;;;8.80;99.90;;;;;;4959883;28;20037;-76
2023/01/02 10:21:11;;;;;;;4.95;3.10;;;8.80;99.90;;;;;;4959746;28;20489;-75
2023/01/02 10:23:43;;;;;;;6.57;3.28;;;8.80;99.90;;;;;;4959593;28;20501;-75
2023/01/02 10:26:43;;;;;;;6.95;2.55;;;8.80;99.90;;;;;;4960810;28;20392;-75
2023/01/02 10:29:35;;;;;;;5.00;2.97;;;8.80;99.90;;;;;;4967744;28;20104;-76
2023/01/02 10:32:04;;;;;;;5.97;3.33;;;8.70;99.90;;;;;;4959103;28;20046;-76
2023/01/02 10:35:06;;;;;;;5.43;3.80;;;8.80;99.90;;;;;;4975703;28;20132;-75
2023/01/02 10:37:39;;;;;;;6.35;3.80;;;8.70;99.90;;;;;;4959715;28;20164;-75
2023/01/02 10:40:05;;;;;;;5.50;3.80;;;8.70;99.90;;;;;;4975732;28;20137;-75
2023/01/02 10:42:35;;;;;;;7.53;4.60;;;8.70;99.90;;;;;;4959030;28;20125;-75
2023/01/02 10:45:08;;;;;;;9.48;4.50;;;8.70;99.90;;;;;;4975544;28;20077;-75
2023/01/02 10:47:38;;;;;;;10.32;5.47;;;8.70;99.90;;;;;;4958955;28;20046;-75
2023/01/02 10:50:13;;;;;;;8.63;5.28;;;8.70;99.90;;;;;;4974939;28;20104;-75
2023/01/02 10:52:49;;;;;;;9.77;5.00;;;8.70;99.90;;;;;;4959374;28;20043;-75
2023/01/02 10:55:31;;;;;;;9.27;6.07;;;8.80;99.90;;;;;;4959415;28;20212;-75
2023/01/02 10:58:07;;;;;;;7.07;4.60;;;8.90;99.90;;;;;;4975017;28;20482;-75
2023/01/02 11:00:35;;;;;;;7.88;4.43;;;8.90;99.90;;;;;;4959666;28;20050;-75
2023/01/02 11:03:22;;;;;;;8.82;4.82;;;9.00;99.90;;;;;;4959442;28;20049;-75
2023/01/02 11:05:51;;;;;;;7.72;4.93;;;9.10;99.90;;;;;;4958848;28;20070;-75
2023/01/02 11:08:21;;;;;;;7.90;5.13;;;9.00;99.90;;;;;;4958429;28;20133;-75
2023/01/02 11:10:48;;;;;;;8.82;6.00;;;9.00;99.90;;;;;;4958786;28;20291;-75
2023/01/02 11:13:25;;;;;;;9.98;6.70;;;9.00;99.90;;;;;;4959413;28;20086;-75
2023/01/02 11:16:04;;;;;;;10.43;6.40;;;9.10;99.90;;;;;;4974319;28;20050;-75
2023/01/02 11:18:44;;;;;;;11.10;6.32;;;9.10;99.90;;;;;;4974922;28;20519;-75
2023/01/02 11:21:15;;;;;;;9.85;6.78;;;9.20;99.90;;;;;;4974486;28;20108;-75
2023/01/02 11:23:43;;;;;;;9.18;5.75;;;9.10;99.90;;;;;;4958717;28;20046;-75
2023/01/02 11:26:19;;;;;;;13.15;6.53;;;9.20;99.90;;;;;;4958626;28;20081;-75
2023/01/02 11:28:47;;;;;;;9.68;6.13;;;9.10;99.90;;;;;;4958451;28;20042;-75
2023/01/02 11:31:26;;;;;;;9.20;5.57;;;9.20;99.90;;;;;;4958751;28;20425;-75
2023/01/02 11:34:13;;;;;;;7.95;5.18;;;9.10;99.90;;;;;;4974679;28;20121;-75
2023/01/02 11:37:01;;;;;;;8.35;4.10;;;9.00;99.90;;;;;;4958237;28;20081;-75
2023/01/02 11:39:33;;;;;;;6.85;3.75;;;9.00;99.90;;;;;;4958354;28;20132;-75
2023/01/02 11:45:15;;;;;;;9.15;3.28;;;8.90;99.90;;;;;;4974498;28;20086;-75
2023/01/02 11:47:56;;;;;;;6.95;2.90;;;8.90;99.90;;;;;;4958989;28;20053;-75
2023/01/02 11:50:23;;;;;;;8.05;2.67;;;8.90;99.90;;;;;;4974203;28;20042;-75
2023/01/02 11:53:08;;;;;;;5.85;2.38;;;8.90;99.90;;;;;;4958429;28;20081;-76
2023/01/02 11:55:43;;;;;;;5.82;2.65;;;8.90;99.90;;;;;;4958392;28;20066;-76
2023/01/02 11:58:27;;;;;;;7.75;2.65;;;9.00;99.90;;;;;;4974290;28;20497;-76
2023/01/02 12:01:29;;;;;;;6.90;2.10;;;9.00;99.90;;;;;;4974462;28;20150;-76
2023/01/02 12:03:58;;;;;;;8.13;2.47;;;9.10;99.90;;;;;;4974287;28;20591;-76
2023/01/02 12:06:49;;;;;;;4.93;1.85;;;9.10;99.90;;;;;;4958204;28;20047;-76
2023/01/02 12:09:27;;;;;;;7.22;1.73;;;9.10;99.90;;;;;;4958333;28;20047;-76
2023/01/02 12:12:05;;;;;;;7.32;2.15;;;9.00;99.90;;;;;;4959408;28;20061;-76
2023/01/02 12:14:48;;;;;;;8.77;1.90;;;9.00;99.90;;;;;;4958301;28;20528;-76
2023/01/02 12:17:20;;;;;;;4.93;1.60;;;9.00;99.90;;;;;;4957820;28;20046;-76
2023/01/02 12:20:19;;;;;;;7.30;2.05;;;8.90;99.90;;;;;;4974570;28;20057;-76
2023/01/02 12:22:51;;;;;;;6.40;1.77;;;8.90;99.90;;;;;;4974092;28;20049;-76
2023/01/02 12:25:48;;;;;;;6.80;2.45;;;8.90;99.90;;;;;;4957884;28;20057;-76
2023/01/02 12:28:35;;;;;;;5.90;2.17;;;8.90;99.90;;;;;;4962222;28;20484;-76
2023/01/02 12:31:23;;;;;;;5.63;2.30;;;8.80;99.90;;;;;;4962083;28;20133;-76
2023/01/02 12:34:07;;;;;;;8.25;2.47;;;8.90;99.90;;;;;;4962006;28;20042;-76
2023/01/02 12:37:01;;;;;;;7.85;1.98;;;8.90;99.90;;;;;;4961789;28;20057;-76
2023/01/02 12:39:56;;;;;;;5.68;2.33;;;8.90;99.90;;;;;;4961486;28;20042;-76
2023/01/02 12:42:49;;;;;;;8.18;2.75;;;8.90;99.90;;;;;;4961492;28;20065;-74
2023/01/02 12:45:29;;;;;;;6.22;2.65;;;8.90;99.90;;;;;;4977542;28;20488;-75
2023/01/02 12:48:17;;;;;;;7.18;3.20;;;8.90;99.90;;;;;;4961649;28;20481;-75
2023/01/02 12:51:12;;;;;;;6.28;2.33;;;8.90;99.90;;;;;;4961229;28;20081;-75
2023/01/02 12:54:04;;;;;;;6.20;2.90;;;9.00;99.90;;;;;;4961217;28;20070;-75
2023/01/02 12:57:20;;;;;;;7.13;2.72;;;8.90;99.90;;;;;;4961445;28;20088;-75
2023/01/02 12:59:57;;;;;;;12.07;3.20;;;9.00;99.90;;;;;;4938153;28;20097;-75
2023/01/02 13:03:04;;;;;;;11.45;3.40;;;9.00;99.90;;;;;;4977201;28;20046;-75
2023/01/02 13:06:04;;;;;;;5.93;2.28;;;9.00;99.90;;;;;;4977255;28;20046;-75
2023/01/02 13:08:52;;;;;;;6.28;2.38;;;9.00;99.90;;;;;;4960481;28;20051;-75
2023/01/02 13:12:00;;;;;;;8.82;2.50;;;9.00;99.90;;;;;;4977549;28;20046;-75
2023/01/02 13:14:34;;;;;;;10.27;2.60;;;9.00;99.90;;;;;;4960834;28;20046;-75